Time;durP1;ratioP1;P1;durP2;ratioP2;P2;SDS_P1;SDS_P2;PMS_P1;PMS_P2;Temp;Humidity;BMP_temperature;BMP_pressure;BME280_temperature;BME280_humidity;BME280_pressure;Samples;Min_cycle;Max_cycle;Signal;HPM_P1;HPM_P2
2023/10/28 00:01:14;;;;;;;;;;;9.00;99.90;;;;;;5024211;28;19917;-66
2023/10/28 00:03:40;;;;;;;;;;;9.00;99.90;;;;;;5040797;28;19990;-66
2023/10/28 00:06:07;;;;;;;;;;;9.00;99.90;;;;;;5035031;28;19928;-66
2023/10/28 00:08:33;;;;;;;;;;;9.00;99.90;;;;;;5036853;28;19940;-66
2023/10/28 00:11:00;;;;;;;;;;;9.00;99.90;;;;;;5032185;28;19944;-65
2023/10/28 00:13:25;;;;;;;;;;;9.10;99.90;;;;;;5043099;28;19921;-66
2023/10/28 00:15:51;;;;;;;;;;;9.10;99.90;;;;;;5031444;28;19979;-65
2023/10/28 00:18:16;;;;;;;;;;;9.10;99.90;;;;;;5030795;28;19917;-65
2023/10/28 00:20:44;;;;;;;;;;;9.10;99.90;;;;;;5021354;28;19917;-66
2023/10/28 00:23:09;;;;;;;;;;;9.10;99.90;;;;;;5024682;28;19921;-66
2023/10/28 00:25:35;;;;;;;;;;;9.10;99.90;;;;;;5022773;28;19921;-65
2023/10/28 00:28:00;;;;;;;;;;;9.20;99.90;;;;;;5018987;28;20059;-65
2023/10/28 00:30:26;;;;;;;;;;;9.10;99.90;;;;;;5009728;28;19953;-65
2023/10/28 00:32:52;;;;;;;;;;;9.10;99.90;;;;;;5025318;28;20384;-66
2023/10/28 00:35:18;;;;;;;;;;;9.20;99.90;;;;;;5020311;28;19918;-65
2023/10/28 00:37:44;;;;;;;;;;;9.20;99.90;;;;;;5023529;28;19917;-66
2023/10/28 00:40:10;;;;;;;;;;;9.20;99.90;;;;;;5024932;28;19932;-65
2023/10/28 00:42:36;;;;;;;;;;;9.20;99.90;;;;;;5022796;28;19921;-66
2023/10/28 00:45:03;;;;;;;;;;;9.10;99.90;;;;;;5025079;28;20826;-65
2023/10/28 00:47:29;;;;;;;;;;;9.20;99.90;;;;;;5015263;28;19931;-66
2023/10/28 00:49:54;;;;;;;;;;;9.10;99.90;;;;;;5025355;28;19925;-66
2023/10/28 00:52:21;;;;;;;;;;;9.10;99.90;;;;;;5015537;28;19925;-67
2023/10/28 00:54:48;;;;;;;;;;;9.10;99.90;;;;;;5017152;28;19949;-66
2023/10/28 00:57:17;;;;;;;;;;;9.10;99.90;;;;;;5011157;28;20316;-65
2023/10/28 00:59:43;;;;;;;;;;;9.10;99.90;;;;;;5022915;28;19971;-65
2023/10/28 01:02:12;;;;;;;;;;;9.00;99.90;;;;;;5013736;28;19944;-65
2023/10/28 01:04:38;;;;;;;;;;;8.90;99.90;;;;;;5016055;28;19984;-65
2023/10/28 01:07:04;;;;;;;;;;;8.90;99.90;;;;;;5014210;28;20439;-65
2023/10/28 01:09:29;;;;;;;;;;;9.00;99.90;;;;;;5020937;28;20469;-65
2023/10/28 01:11:55;;;;;;;;;;;8.90;99.90;;;;;;5015554;28;19917;-66
2023/10/28 01:14:21;;;;;;;;;;;8.90;99.90;;;;;;5024862;28;19928;-65
2023/10/28 01:16:49;;;;;;;;;;;8.90;99.90;;;;;;5011598;28;19921;-65
2023/10/28 01:19:15;;;;;;;;;;;8.90;99.90;;;;;;5020251;28;19928;-66
2023/10/28 01:21:41;;;;;;;;;;;8.90;99.90;;;;;;5016360;28;19936;-66
2023/10/28 01:24:07;;;;;;;;;;;8.90;99.90;;;;;;5017432;28;19917;-65
2023/10/28 01:26:33;;;;;;;;;;;9.00;99.90;;;;;;5014086;28;19928;-66
2023/10/28 01:29:00;;;;;;;;;;;9.00;99.90;;;;;;5018434;28;20751;-65
2023/10/28 01:31:26;;;;;;;;;;;9.00;99.90;;;;;;5013764;28;19916;-65
2023/10/28 01:33:52;;;;;;;;;;;9.00;99.90;;;;;;5009261;28;19979;-65
2023/10/28 01:36:17;;;;;;;;;;;8.90;99.90;;;;;;5010499;28;19925;-65
2023/10/28 01:38:43;;;;;;;;;;;8.90;99.90;;;;;;5014335;28;19945;-66
2023/10/28 01:41:12;;;;;;;;;;;8.90;99.90;;;;;;5006814;28;19921;-65
2023/10/28 01:43:40;;;;;;;;;;;9.00;99.90;;;;;;5012149;28;19949;-65
2023/10/28 01:46:05;;;;;;;;;;;9.00;99.90;;;;;;5018299;28;19975;-65
2023/10/28 01:48:31;;;;;;;;;;;9.10;99.90;;;;;;5015122;28;20415;-65
2023/10/28 01:50:56;;;;;;;;;;;9.10;99.90;;;;;;5013231;28;20008;-65
2023/10/28 01:53:25;;;;;;;;;;;9.10;99.90;;;;;;5010621;28;20335;-64
2023/10/28 01:55:50;;;;;;;;;;;9.10;99.90;;;;;;5014365;28;20315;-64
2023/10/28 01:58:16;;;;;;;;;;;9.20;99.90;;;;;;5021863;28;19917;-63
2023/10/28 02:00:41;;;;;;;;;;;9.20;99.90;;;;;;5013572;28;19925;-64
2023/10/28 02:03:11;;;;;;;;;;;9.20;99.90;;;;;;5025407;28;20386;-64
2023/10/28 02:05:37;;;;;;;;;;;9.20;99.90;;;;;;5012486;28;19957;-64
2023/10/28 02:08:03;;;;;;;;;;;9.20;99.90;;;;;;5023334;28;19950;-64
2023/10/28 02:10:29;;;;;;;;;;;9.20;99.90;;;;;;5012311;28;20309;-64
2023/10/28 02:12:54;;;;;;;;;;;9.20;99.90;;;;;;5024768;28;19928;-63
2023/10/28 02:15:20;;;;;;;;;;;9.20;99.90;;;;;;5011258;28;20008;-63
2023/10/28 02:17:46;;;;;;;;;;;9.20;99.90;;;;;;5018229;28;19917;-65
2023/10/28 02:20:13;;;;;;;;;;;9.20;99.90;;;;;;5021416;28;19971;-65
2023/10/28 02:22:39;;;;;;;;;;;9.20;99.90;;;;;;5025192;28;19963;-64
2023/10/28 02:25:05;;;;;;;;;;;9.20;99.90;;;;;;5017800;28;19956;-65
2023/10/28 02:27:30;;;;;;;;;;;9.20;99.90;;;;;;5024653;28;19921;-64
2023/10/28 02:29:55;;;;;;;;;;;9.20;99.90;;;;;;5018392;28;19917;-66
2023/10/28 02:32:21;;;;;;;;;;;9.20;99.90;;;;;;5019545;28;19920;-66
2023/10/28 02:34:46;;;;;;;;;;;9.20;99.90;;;;;;5009869;28;19921;-65
2023/10/28 02:37:14;;;;;;;;;;;9.20;99.90;;;;;;5009537;28;19917;-66
2023/10/28 02:39:39;;;;;;;;;;;9.20;99.90;;;;;;5019897;28;19995;-66
2023/10/28 02:42:05;;;;;;;;;;;9.30;99.90;;;;;;5008197;28;20510;-66
2023/10/28 02:44:30;;;;;;;;;;;9.20;99.90;;;;;;5016574;28;20451;-65
2023/10/28 02:46:56;;;;;;;;;;;9.20;99.90;;;;;;5006745;28;20335;-66
2023/10/28 02:49:21;;;;;;;;;;;9.20;99.90;;;;;;5013543;28;19921;-65
2023/10/28 02:51:47;;;;;;;;;;;9.20;99.90;;;;;;5006492;28;20103;-66
2023/10/28 02:54:14;;;;;;;;;;;9.20;99.90;;;;;;5020239;28;20301;-65
2023/10/28 02:56:39;;;;;;;;;;;9.10;99.90;;;;;;5013247;28;19920;-66
2023/10/28 02:59:06;;;;;;;;;;;9.10;99.90;;;;;;5023060;28;19923;-64
2023/10/28 03:01:36;;;;;;;;;;;9.10;99.90;;;;;;5007275;28;20480;-65
2023/10/28 03:04:02;;;;;;;;;;;9.10;99.90;;;;;;5025034;28;19952;-64
2023/10/28 03:06:28;;;;;;;;;;;9.00;99.90;;;;;;5012768;28;19928;-65
2023/10/28 03:08:54;;;;;;;;;;;9.10;99.90;;;;;;5019513;28;19917;-65
2023/10/28 03:11:20;;;;;;;;;;;9.00;99.90;;;;;;5015552;28;19917;-67
2023/10/28 03:13:46;;;;;;;;;;;9.10;99.90;;;;;;5025002;28;19931;-66
2023/10/28 03:16:11;;;;;;;;;;;9.00;99.90;;;;;;5013369;28;20464;-64
2023/10/28 03:18:37;;;;;;;;;;;9.10;99.90;;;;;;5014265;28;19909;-64
2023/10/28 03:21:04;;;;;;;;;;;9.10;99.90;;;;;;5008499;28;19932;-64
2023/10/28 03:23:30;;;;;;;;;;;9.10;99.90;;;;;;5020433;28;20438;-64
2023/10/28 03:25:55;;;;;;;;;;;9.10;99.90;;;;;;5017974;28;19921;-64
2023/10/28 03:28:21;;;;;;;;;;;9.10;99.90;;;;;;5018174;28;19972;-64
2023/10/28 03:30:46;;;;;;;;;;;9.10;99.90;;;;;;5008439;28;20433;-63
2023/10/28 03:33:12;;;;;;;;;;;9.10;99.90;;;;;;5020878;28;20388;-64
2023/10/28 03:35:37;;;;;;;;;;;9.00;99.90;;;;;;5010205;28;19918;-64
2023/10/28 03:38:03;;;;;;;;;;;9.00;99.90;;;;;;5026292;28;19922;-65
2023/10/28 03:40:28;;;;;;;;;;;9.00;99.90;;;;;;5009340;28;20425;-65
2023/10/28 03:42:54;;;;;;;;;;;9.00;99.90;;;;;;5019742;28;19921;-66
2023/10/28 03:45:20;;;;;;;;;;;9.00;99.90;;;;;;5014718;28;19918;-64
2023/10/28 03:47:45;;;;;;;;;;;9.00;99.90;;;;;;5024216;28;20457;-65
2023/10/28 03:50:11;;;;;;;;;;;9.00;99.90;;;;;;5002918;28;20059;-66
2023/10/28 03:52:36;;;;;;;;;;;9.00;99.90;;;;;;5017102;28;19921;-66
2023/10/28 03:55:03;;;;;;;;;;;9.00;99.90;;;;;;5014476;28;21027;-65
2023/10/28 03:57:28;;;;;;;;;;;9.00;99.90;;;;;;5023447;28;19998;-65
2023/10/28 03:59:54;;;;;;;;;;;9.00;99.90;;;;;;5014977;28;19921;-66
2023/10/28 04:02:19;;;;;;;;;;;8.90;99.90;;;;;;5011289;28;20414;-65
2023/10/28 04:04:45;;;;;;;;;;;8.90;99.90;;;;;;5025289;28;19924;-66
2023/10/28 04:07:11;;;;;;;;;;;8.90;99.90;;;;;;5017040;28;20119;-66
2023/10/28 04:09:37;;;;;;;;;;;8.90;99.90;;;;;;5023287;28;20023;-66
2023/10/28 04:12:05;;;;;;;;;;;8.90;99.90;;;;;;5012801;28;20292;-66
2023/10/28 04:14:34;;;;;;;;;;;8.90;99.90;;;;;;5024991;28;19917;-66
2023/10/28 04:16:59;;;;;;;;;;;9.00;99.90;;;;;;5017298;28;20466;-66
2023/10/28 04:19:25;;;;;;;;;;;9.00;99.90;;;;;;5024608;28;20016;-65
2023/10/28 04:21:50;;;;;;;;;;;9.00;99.90;;;;;;5017981;28;19943;-65
2023/10/28 04:24:16;;;;;;;;;;;9.00;99.90;;;;;;5015740;28;20412;-66
2023/10/28 04:26:41;;;;;;;;;;;9.10;99.90;;;;;;5016163;28;20320;-65
2023/10/28 04:29:07;;;;;;;;;;;9.10;99.90;;;;;;5015072;28;19933;-65
2023/10/28 04:31:32;;;;;;;;;;;9.10;99.90;;;;;;5011798;28;20399;-65
2023/10/28 04:34:00;;;;;;;;;;;9.10;99.90;;;;;;5019019;28;19992;-65
2023/10/28 04:36:25;;;;;;;;;;;9.10;99.90;;;;;;5016649;28;19944;-65
2023/10/28 04:38:51;;;;;;;;;;;9.10;99.90;;;;;;5030575;28;19920;-64
2023/10/28 04:41:16;;;;;;;;;;;9.20;99.90;;;;;;5017822;28;20035;-64
2023/10/28 04:43:42;;;;;;;;;;;9.10;99.90;;;;;;5030052;28;19917;-65
2023/10/28 04:46:07;;;;;;;;;;;9.10;99.90;;;;;;5022733;28;20016;-65
2023/10/28 04:48:33;;;;;;;;;;;9.20;99.90;;;;;;5025214;28;20396;-65
2023/10/28 04:50:58;;;;;;;;;;;9.20;99.90;;;;;;5015794;28;19924;-65
2023/10/28 04:53:24;;;;;;;;;;;9.10;99.90;;;;;;5017419;28;19921;-65
2023/10/28 04:55:50;;;;;;;;;;;9.20;99.90;;;;;;5023424;28;20533;-65
2023/10/28 04:58:15;;;;;;;;;;;9.20;99.90;;;;;;5030225;28;20442;-64
2023/10/28 05:00:41;;;;;;;;;;;9.10;99.90;;;;;;5022279;28;19925;-64
2023/10/28 05:03:07;;;;;;;;;;;9.10;99.90;;;;;;5035045;28;19921;-64
2023/10/28 05:05:32;;;;;;;;;;;9.00;99.90;;;;;;5021498;28;19964;-64
2023/10/28 05:07:58;;;;;;;;;;;9.00;99.90;;;;;;5020487;28;20032;-65
2023/10/28 05:10:23;;;;;;;;;;;8.90;99.90;;;;;;5022596;28;19925;-64
2023/10/28 05:12:49;;;;;;;;;;;8.80;99.90;;;;;;5025098;28;19968;-61
2023/10/28 05:15:15;;;;;;;;;;;8.80;99.90;;;;;;5016679;28;19921;-64
2023/10/28 05:17:41;;;;;;;;;;;8.80;99.90;;;;;;5020224;28;19988;-65
2023/10/28 05:20:08;;;;;;;;;;;8.80;99.90;;;;;;5021414;28;20059;-65
2023/10/28 05:22:37;;;;;;;;;;;8.80;99.90;;;;;;5017180;28;19947;-65
2023/10/28 05:25:07;;;;;;;;;;;8.80;99.90;;;;;;5019195;28;19965;-65
2023/10/28 05:27:33;;;;;;;;;;;8.80;99.90;;;;;;5016692;28;19943;-64
2023/10/28 05:29:59;;;;;;;;;;;8.70;99.90;;;;;;5017475;28;19921;-64
2023/10/28 05:32:25;;;;;;;;;;;8.70;99.90;;;;;;5016344;28;19940;-64
2023/10/28 05:34:50;;;;;;;;;;;8.70;99.90;;;;;;5014327;28;19921;-65
2023/10/28 05:37:16;;;;;;;;;;;8.60;99.90;;;;;;5016194;28;19917;-64
2023/10/28 05:39:42;;;;;;;;;;;8.70;99.90;;;;;;5017571;28;19929;-64
2023/10/28 05:42:07;;;;;;;;;;;8.70;99.90;;;;;;5017359;28;19980;-65
2023/10/28 05:44:33;;;;;;;;;;;8.80;99.90;;;;;;5019251;28;20338;-64
2023/10/28 05:47:02;;;;;;;;;;;8.70;99.90;;;;;;5019973;28;19960;-64
2023/10/28 05:49:27;;;;;;;;;;;8.70;99.90;;;;;;5018285;28;19923;-65
2023/10/28 05:51:54;;;;;;;;;;;8.80;99.90;;;;;;5020908;28;20007;-64
2023/10/28 05:54:20;;;;;;;;;;;8.80;99.90;;;;;;5028990;28;20381;-65
2023/10/28 05:56:45;;;;;;;;;;;8.80;99.90;;;;;;5022808;28;20314;-64
2023/10/28 05:59:11;;;;;;;;;;;8.80;99.90;;;;;;5022322;28;20438;-65
2023/10/28 06:01:36;;;;;;;;;;;8.80;99.90;;;;;;5018671;28;19923;-65
2023/10/28 06:04:02;;;;;;;;;;;8.80;99.90;;;;;;5025586;28;19975;-65
2023/10/28 06:06:27;;;;;;;;;;;8.80;99.90;;;;;;5025015;28;20513;-65
2023/10/28 06:08:53;;;;;;;;;;;8.80;99.90;;;;;;5026509;28;19952;-65
2023/10/28 06:11:19;;;;;;;;;;;8.70;99.90;;;;;;5020562;28;20320;-65
2023/10/28 06:13:44;;;;;;;;;;;8.80;99.90;;;;;;5022476;28;19928;-64
2023/10/28 06:16:10;;;;;;;;;;;8.80;99.90;;;;;;5019874;28;19921;-64
2023/10/28 06:18:36;;;;;;;;;;;8.70;99.90;;;;;;5024029;28;19917;-65
2023/10/28 06:21:03;;;;;;;;;;;8.70;99.90;;;;;;5024173;28;19959;-65
2023/10/28 06:23:28;;;;;;;;;;;8.70;99.90;;;;;;5025417;28;19967;-65
2023/10/28 06:25:55;;;;;;;;;;;8.70;99.90;;;;;;5017555;28;19956;-62
2023/10/28 06:28:20;;;;;;;;;;;8.70;99.90;;;;;;5020484;28;19929;-63
2023/10/28 06:30:49;;;;;;;;;;;8.70;99.90;;;;;;5015331;28;19972;-62
2023/10/28 06:33:15;;;;;;;;;;;8.70;99.90;;;;;;5018144;28;20454;-62
2023/10/28 06:35:41;;;;;;;;;;;8.60;99.90;;;;;;5020557;28;19925;-63
2023/10/28 06:38:07;;;;;;;;;;;8.70;99.90;;;;;;5013913;28;19925;-62
2023/10/28 06:40:33;;;;;;;;;;;8.70;99.90;;;;;;5012756;28;19916;-62
2023/10/28 06:42:58;;;;;;;;;;;8.70;99.90;;;;;;5016474;28;19920;-63
2023/10/28 06:45:23;;;;;;;;;;;8.70;99.90;;;;;;5017985;28;19917;-65
2023/10/28 06:47:50;;;;;;;;;;;8.70;99.90;;;;;;5014681;28;19940;-65
2023/10/28 06:50:19;;;;;;;;;;;8.70;99.90;;;;;;5018888;28;19929;-65
2023/10/28 06:52:45;;;;;;;;;;;8.70;99.90;;;;;;5022570;28;20006;-65
2023/10/28 06:55:12;;;;;;;;;;;8.70;99.90;;;;;;5017218;28;19964;-65
2023/10/28 06:57:38;;;;;;;;;;;8.70;99.90;;;;;;5015128;28;19917;-65
2023/10/28 07:00:05;;;;;;;;;;;8.80;99.90;;;;;;5004441;28;19931;-65
2023/10/28 07:02:32;;;;;;;;;;;8.80;99.90;;;;;;5009182;28;19917;-65
2023/10/28 07:04:58;;;;;;;;;;;8.80;99.90;;;;;;5015833;28;19918;-64
2023/10/28 07:07:23;;;;;;;;;;;8.80;99.90;;;;;;5017072;28;19925;-64
2023/10/28 07:09:49;;;;;;;;;;;8.80;99.90;;;;;;5020805;28;20054;-64
2023/10/28 07:12:14;;;;;;;;;;;8.80;99.90;;;;;;5019101;28;19986;-64
2023/10/28 07:14:40;;;;;;;;;;;8.90;99.90;;;;;;5017493;28;19918;-64
2023/10/28 07:17:05;;;;;;;;;;;8.90;99.90;;;;;;5019117;28;19956;-64
2023/10/28 07:19:31;;;;;;;;;;;8.90;99.90;;;;;;5019949;28;20015;-63
2023/10/28 07:21:57;;;;;;;;;;;8.90;99.90;;;;;;5020643;28;19917;-63
2023/10/28 07:24:22;;;;;;;;;;;8.90;99.90;;;;;;5020219;28;19921;-63
2023/10/28 07:26:47;;;;;;;;;;;8.90;99.90;;;;;;5020583;28;20036;-63
2023/10/28 07:29:13;;;;;;;;;;;8.90;99.90;;;;;;5016122;28;19917;-64
2023/10/28 07:31:38;;;;;;;;;;;8.90;99.90;;;;;;5023192;28;20377;-64
2023/10/28 07:34:07;;;;;;;;;;;9.00;99.90;;;;;;5022804;28;19932;-64
2023/10/28 07:36:33;;;;;;;;;;;9.00;99.90;;;;;;5015785;28;19917;-64
2023/10/28 07:39:01;;;;;;;;;;;9.00;99.90;;;;;;5030827;28;20027;-64
2023/10/28 07:41:28;;;;;;;;;;;9.10;99.90;;;;;;5014363;28;19997;-64
2023/10/28 07:43:53;;;;;;;;;;;9.20;99.90;;;;;;5027974;28;20399;-64
2023/10/28 07:46:19;;;;;;;;;;;9.30;99.90;;;;;;5018903;28;19928;-62
2023/10/28 07:48:45;;;;;;;;;;;9.20;99.90;;;;;;5022555;28;20542;-65
2023/10/28 07:51:13;;;;;;;;;;;9.20;99.90;;;;;;5021577;28;19928;-61
2023/10/28 07:53:39;;;;;;;;;;;9.10;99.90;;;;;;5028256;28;19917;-61
2023/10/28 07:56:04;;;;;;;;;;;9.10;99.90;;;;;;5015223;28;20050;-60
2023/10/28 07:58:30;;;;;;;;;;;9.00;99.90;;;;;;5016922;28;19932;-62
2023/10/28 08:00:55;;;;;;;;;;;9.10;99.90;;;;;;5009474;28;20038;-65
2023/10/28 08:03:21;;;;;;;;;;;9.10;99.90;;;;;;5014027;28;20763;-64
2023/10/28 08:05:46;;;;;;;;;;;9.10;99.90;;;;;;5017091;28;19944;-64
2023/10/28 08:08:12;;;;;;;;;;;9.10;99.90;;;;;;5016331;28;20385;-64
2023/10/28 08:10:40;;;;;;;;;;;9.00;99.90;;;;;;5022218;28;19917;-64
2023/10/28 08:13:06;;;;;;;;;;;9.10;99.90;;;;;;5024752;28;19956;-64
2023/10/28 08:15:31;;;;;;;;;;;9.10;99.90;;;;;;5022416;28;19956;-64
2023/10/28 08:17:57;;;;;;;;;;;9.20;99.90;;;;;;5025602;28;19979;-63
2023/10/28 08:20:23;;;;;;;;;;;9.20;99.90;;;;;;5023678;28;20289;-63
2023/10/28 08:22:48;;;;;;;;;;;9.10;99.90;;;;;;5031673;28;19979;-63
2023/10/28 08:25:15;;;;;;;;;;;9.20;99.90;;;;;;5023603;28;19944;-63
2023/10/28 08:27:44;;;;;;;;;;;9.20;99.90;;;;;;5027656;28;19967;-64
2023/10/28 08:30:17;;;;;;;;;;;9.20;99.90;;;;;;5023161;28;19921;-64
2023/10/28 08:32:42;;;;;;;;;;;9.20;99.90;;;;;;5019000;28;19928;-63
2023/10/28 08:35:09;;;;;;;;;;;9.30;99.90;;;;;;5017524;28;20795;-63
2023/10/28 08:37:35;;;;;;;;;;;9.40;99.90;;;;;;5026049;28;19921;-66
2023/10/28 08:40:00;;;;;;;;;;;9.40;99.90;;;;;;5022646;28;20461;-64
2023/10/28 08:42:26;;;;;;;;;;;9.40;99.90;;;;;;5019160;28;19917;-63
2023/10/28 08:44:51;;;;;;;;;;;9.50;99.90;;;;;;5023829;28;20302;-64
2023/10/28 08:47:21;;;;;;;;;;;9.60;99.90;;;;;;5024816;28;19936;-63
2023/10/28 08:49:48;;;;;;;;;;;9.70;99.90;;;;;;5030042;28;19917;-63
2023/10/28 08:52:17;;;;;;;;;;;9.70;99.90;;;;;;5025110;28;20458;-64
2023/10/28 08:54:44;;;;;;;;;;;9.70;99.90;;;;;;5025908;28;19917;-63
2023/10/28 08:57:09;;;;;;;;;;;9.80;99.90;;;;;;5019315;28;20347;-65
2023/10/28 08:59:36;;;;;;;;;;;9.80;99.90;;;;;;5020405;28;19917;-64
2023/10/28 09:02:08;;;;;;;;;;;9.80;99.90;;;;;;5021079;28;19924;-63
2023/10/28 09:04:34;;;;;;;;;;;9.90;99.90;;;;;;5014764;28;19956;-63
2023/10/28 09:07:01;;;;;;;;;;;9.80;99.90;;;;;;5021278;28;19925;-62
2023/10/28 09:09:27;;;;;;;;;;;9.90;99.90;;;;;;5024049;28;19940;-63
2023/10/28 09:11:57;;;;;;;;;;;9.90;99.90;;;;;;5018249;28;19920;-63
2023/10/28 09:14:23;;;;;;;;;;;9.90;99.90;;;;;;5026822;28;20393;-63
2023/10/28 09:16:49;;;;;;;;;;;9.80;99.90;;;;;;5021307;28;19925;-63
2023/10/28 09:19:21;;;;;;;;;;;9.80;99.90;;;;;;5028926;28;20020;-61
2023/10/28 09:21:51;;;;;;;;;;;9.90;99.90;;;;;;5017789;28;20305;-63
2023/10/28 09:24:17;;;;;;;;;;;9.90;99.90;;;;;;5027456;28;19955;-63
2023/10/28 09:26:42;;;;;;;;;;;10.00;99.90;;;;;;5020107;28;19921;-62
2023/10/28 09:29:08;;;;;;;;;;;10.00;99.90;;;;;;5028255;28;19917;-60
2023/10/28 09:31:34;;;;;;;;;;;10.00;99.90;;;;;;5014366;28;19952;-63
2023/10/28 09:34:00;;;;;;;;;;;10.00;99.90;;;;;;5023225;28;20591;-59
2023/10/28 09:36:28;;;;;;;;;;;10.00;99.90;;;;;;5021699;28;19921;-61
2023/10/28 09:38:55;;;;;;;;;;;9.90;99.90;;;;;;5015374;28;19921;-62
2023/10/28 09:41:20;;;;;;;;;;;9.80;99.90;;;;;;5014676;28;19929;-63
2023/10/28 09:43:46;;;;;;;;;;;9.80;99.90;;;;;;5022470;28;19917;-63
2023/10/28 09:46:15;;;;;;;;;;;9.80;99.90;;;;;;5014523;28;19964;-63
2023/10/28 09:48:45;;;;;;;;;;;9.70;99.90;;;;;;5017153;28;19917;-62
2023/10/28 09:51:13;;;;;;;;;;;9.80;99.90;;;;;;5019857;28;19975;-62
2023/10/28 09:53:40;;;;;;;;;;;9.80;99.90;;;;;;5022547;28;19929;-62
2023/10/28 09:56:06;;;;;;;;;;;9.80;99.90;;;;;;5022460;28;20359;-62
2023/10/28 09:58:37;;;;;;;;;;;9.80;99.90;;;;;;5025677;28;19917;-63
2023/10/28 10:01:28;;;;;;;;;;;9.80;99.90;;;;;;5012910;28;19967;-63
2023/10/28 10:04:00;;;;;;;;;;;9.70;99.90;;;;;;5021511;28;20007;-64
2023/10/28 10:06:26;;;;;;;;;;;9.80;99.90;;;;;;5016852;28;19929;-64
2023/10/28 10:08:54;;;;;;;;;;;9.80;99.90;;;;;;5016141;28;19924;-63
2023/10/28 10:11:21;;;;;;;;;;;9.80;99.90;;;;;;5011673;28;19980;-67
2023/10/28 10:13:46;;;;;;;;;;;9.80;99.90;;;;;;5021862;28;19917;-64
2023/10/28 10:16:18;;;;;;;;;;;9.90;99.90;;;;;;5015776;28;19940;-63
2023/10/28 10:18:46;;;;;;;;;;;9.80;99.90;;;;;;5051313;28;19918;-64
2023/10/28 10:21:14;;;;;;;;;;;9.80;99.90;;;;;;5019748;28;19990;-63
2023/10/28 10:23:43;;;;;;;;;;;9.80;99.90;;;;;;5020187;28;20011;-63
2023/10/28 10:26:28;;;;;;;;;;;9.90;99.90;;;;;;5016552;28;19928;-62
2023/10/28 10:28:58;;;;;;;;;;;9.90;99.90;;;;;;5019061;28;19921;-64
2023/10/28 10:31:27;;;;;;;;;;;9.90;99.90;;;;;;5012408;28;19966;-63
2023/10/28 10:34:05;;;;;;;;;;;9.90;99.90;;;;;;5011859;28;20376;-64
2023/10/28 10:36:35;;;;;;;;;;;10.00;99.90;;;;;;5013711;28;19917;-60
2023/10/28 10:39:11;;;;;;;;;;;10.00;99.90;;;;;;5023317;28;20019;-63
2023/10/28 10:41:37;;;;;;;;;;;10.00;99.90;;;;;;5012525;28;20032;-62
2023/10/28 10:44:22;;;;;;;;;;;10.00;99.90;;;;;;5020295;28;19924;-61
2023/10/28 10:46:51;;;;;;;;;;;10.10;99.90;;;;;;5013556;28;20360;-63
2023/10/28 10:49:17;;;;;;;;;;;10.10;99.90;;;;;;5018316;28;20555;-62
2023/10/28 10:51:43;;;;;;;;;;;10.10;99.90;;;;;;5020613;28;19956;-64
2023/10/28 10:54:09;;;;;;;;;;;10.10;99.90;;;;;;5013205;28;19925;-63
2023/10/28 10:56:35;;;;;;;;;;;10.10;99.90;;;;;;5013692;28;19932;-62
2023/10/28 10:59:00;;;;;;;;;;;10.10;99.90;;;;;;5015785;28;19917;-62
2023/10/28 11:01:26;;;;;;;;;;;10.00;99.90;;;;;;5006916;28;20389;-62
2023/10/28 11:03:52;;;;;;;;;;;10.00;99.90;;;;;;5015197;28;20817;-62
2023/10/28 11:06:17;;;;;;;;;;;10.00;99.90;;;;;;5012321;28;19921;-62
2023/10/28 11:08:43;;;;;;;;;;;10.00;99.90;;;;;;5016912;28;19917;-63
2023/10/28 11:11:08;;;;;;;;;;;10.10;99.90;;;;;;5010516;28;19999;-62
2023/10/28 11:13:34;;;;;;;;;;;10.10;99.90;;;;;;5016196;28;20402;-62
2023/10/28 11:16:00;;;;;;;;;;;10.00;99.90;;;;;;5010519;28;19917;-62
2023/10/28 11:18:26;;;;;;;;;;;10.00;99.90;;;;;;5006265;28;19928;-64
2023/10/28 11:20:52;;;;;;;;;;;10.00;99.90;;;;;;5015492;28;20320;-60
2023/10/28 11:23:18;;;;;;;;;;;10.00;99.90;;;;;;5026320;28;19928;-62
2023/10/28 11:25:47;;;;;;;;;;;9.90;99.90;;;;;;5014508;28;20393;-62
2023/10/28 11:28:12;;;;;;;;;;;10.00;99.90;;;;;;5010482;28;19964;-62
2023/10/28 11:30:37;;;;;;;;;;;10.10;99.90;;;;;;5004908;28;20019;-60
2023/10/28 11:33:09;;;;;;;;;;;10.20;99.90;;;;;;5001849;28;20802;-61
2023/10/28 11:35:35;;;;;;;;;;;10.30;99.90;;;;;;5014211;28;19925;-59
2023/10/28 11:38:02;;;;;;;;;;;10.30;99.90;;;;;;5015622;28;19917;-61
2023/10/28 11:40:28;;;;;;;;;;;10.50;99.90;;;;;;5011266;28;20024;-61
2023/10/28 11:42:54;;;;;;;;;;;10.40;99.90;;;;;;5021296;28;19924;-62
2023/10/28 11:45:20;;;;;;;;;;;10.50;99.90;;;;;;5017186;28;19918;-59
2023/10/28 11:47:45;;;;;;;;;;;10.60;99.90;;;;;;5019080;28;20499;-63
2023/10/28 11:50:11;;;;;;;;;;;10.60;99.90;;;;;;5013189;28;19921;-60
2023/10/28 11:52:37;;;;;;;;;;;10.50;99.90;;;;;;5012888;28;19933;-62
2023/10/28 11:55:05;;;;;;;;;;;10.50;99.90;;;;;;5022784;28;19982;-61
2023/10/28 11:57:31;;;;;;;;;;;10.60;99.90;;;;;;5017523;28;19939;-61
2023/10/28 11:59:57;;;;;;;;;;;10.50;99.90;;;;;;5021091;28;19924;-61
2023/10/28 12:02:22;;;;;;;;;;;10.50;99.90;;;;;;5013034;28;19921;-61
2023/10/28 12:04:48;;;;;;;;;;;10.60;99.90;;;;;;5022877;28;20001;-62
2023/10/28 12:07:13;;;;;;;;;;;10.60;99.90;;;;;;5015055;28;19921;-61
2023/10/28 12:09:39;;;;;;;;;;;10.60;99.90;;;;;;5022987;28;20352;-62
2023/10/28 12:12:05;;;;;;;;;;;10.80;99.90;;;;;;5012261;28;19953;-62
2023/10/28 12:14:30;;;;;;;;;;;10.80;99.90;;;;;;5025076;28;19920;-62
2023/10/28 12:16:56;;;;;;;;;;;10.80;99.90;;;;;;5017853;28;19917;-59
2023/10/28 12:19:22;;;;;;;;;;;10.80;99.90;;;;;;5015996;28;20324;-57
2023/10/28 12:21:47;;;;;;;;;;;10.70;99.90;;;;;;5014403;28;20115;-62
2023/10/28 12:24:13;;;;;;;;;;;10.80;99.90;;;;;;5029374;28;19917;-62
2023/10/28 12:26:38;;;;;;;;;;;10.80;99.90;;;;;;5017189;28;19925;-62
2023/10/28 12:29:04;;;;;;;;;;;10.80;99.90;;;;;;5021424;28;19929;-62
2023/10/28 12:31:32;;;;;;;;;;;10.80;99.90;;;;;;5020158;28;20012;-62
2023/10/28 12:33:57;;;;;;;;;;;10.90;99.90;;;;;;5015249;28;19925;-62
2023/10/28 12:36:23;;;;;;;;;;;10.90;99.90;;;;;;5012409;28;19921;-62
2023/10/28 12:38:48;;;;;;;;;;;10.90;99.90;;;;;;5020788;28;20343;-63
2023/10/28 12:41:14;;;;;;;;;;;10.90;99.90;;;;;;5016443;28;20050;-63
2023/10/28 12:43:40;;;;;;;;;;;11.00;99.90;;;;;;5024307;28;19952;-63
2023/10/28 12:46:06;;;;;;;;;;;11.10;99.90;;;;;;5018237;28;19925;-62
2023/10/28 12:48:32;;;;;;;;;;;11.20;99.90;;;;;;5025908;28;20012;-61
2023/10/28 12:51:00;;;;;;;;;;;11.30;99.90;;;;;;5021659;28;20016;-61
2023/10/28 12:53:26;;;;;;;;;;;11.30;99.90;;;;;;5018949;28;20293;-62
2023/10/28 12:55:52;;;;;;;;;;;11.50;99.90;;;;;;5014393;28;19924;-62
2023/10/28 12:58:17;;;;;;;;;;;11.60;99.90;;;;;;5026207;28;20378;-60
2023/10/28 13:00:43;;;;;;;;;;;11.60;99.90;;;;;;5014449;28;19917;-59
2023/10/28 13:03:08;;;;;;;;;;;11.50;99.90;;;;;;5022887;28;19956;-61
2023/10/28 13:05:34;;;;;;;;;;;11.50;99.90;;;;;;5012764;28;20306;-60
2023/10/28 13:08:00;;;;;;;;;;;11.20;99.90;;;;;;5022050;28;19934;-62
2023/10/28 13:10:27;;;;;;;;;;;11.10;99.90;;;;;;5011124;28;19924;-58
2023/10/28 13:12:55;;;;;;;;;;;11.00;99.90;;;;;;5028015;28;19921;-61
2023/10/28 13:15:21;;;;;;;;;;;11.00;99.90;;;;;;5012834;28;20416;-61
2023/10/28 13:17:46;;;;;;;;;;;11.00;99.90;;;;;;5024707;28;19925;-62
2023/10/28 13:20:12;;;;;;;;;;;10.90;99.90;;;;;;5016552;28;19972;-59
2023/10/28 13:22:37;;;;;;;;;;;10.90;99.90;;;;;;5024912;28;19923;-60
2023/10/28 13:25:05;;;;;;;;;;;10.90;99.90;;;;;;5023721;28;19917;-62
2023/10/28 13:27:34;;;;;;;;;;;10.90;99.90;;;;;;5021961;28;20418;-60
2023/10/28 13:30:01;;;;;;;;;;;10.90;99.90;;;;;;5010088;28;19997;-62
2023/10/28 13:32:26;;;;;;;;;;;10.90;99.90;;;;;;5018768;28;20459;-62
2023/10/28 13:34:52;;;;;;;;;;;10.90;99.90;;;;;;5018800;28;19924;-62
2023/10/28 13:37:17;;;;;;;;;;;10.90;99.90;;;;;;5022016;28;19920;-62
2023/10/28 13:39:43;;;;;;;;;;;10.80;99.90;;;;;;5022542;28;19917;-60
2023/10/28 13:42:08;;;;;;;;;;;10.80;99.90;;;;;;5016243;28;19921;-60
2023/10/28 13:44:34;;;;;;;;;;;10.70;99.90;;;;;;5014102;28;19918;-62
2023/10/28 13:47:00;;;;;;;;;;;10.70;99.90;;;;;;5016723;28;20015;-62
2023/10/28 13:49:25;;;;;;;;;;;10.70;99.90;;;;;;5024771;28;19980;-62
2023/10/28 13:51:51;;;;;;;;;;;10.70;99.90;;;;;;5014911;28;20340;-61
2023/10/28 13:54:17;;;;;;;;;;;10.70;99.90;;;;;;5026600;28;19920;-62
2023/10/28 13:56:43;;;;;;;;;;;10.70;99.90;;;;;;5011514;28;19956;-62
2023/10/28 13:59:09;;;;;;;;;;;10.70;99.90;;;;;;5023255;28;19931;-60
2023/10/28 14:01:35;;;;;;;;;;;10.70;99.90;;;;;;5013852;28;19917;-63
2023/10/28 14:04:01;;;;;;;;;;;10.70;99.90;;;;;;5031987;28;19987;-64
2023/10/28 14:06:26;;;;;;;;;;;10.80;99.90;;;;;;5018183;28;19932;-63
2023/10/28 14:08:52;;;;;;;;;;;10.80;99.90;;;;;;5017705;28;19924;-64
2023/10/28 14:11:21;;;;;;;;;;;10.70;99.90;;;;;;5020904;28;19917;-63
2023/10/28 14:13:47;;;;;;;;;;;10.80;99.90;;;;;;5031070;28;19964;-63
2023/10/28 14:16:16;;;;;;;;;;;10.70;99.90;;;;;;5018744;28;20384;-64
2023/10/28 14:18:45;;;;;;;;;;;10.70;99.90;;;;;;5025692;28;19943;-64
2023/10/28 14:21:11;;;;;;;;;;;10.70;99.90;;;;;;5012146;28;19925;-64